Time;durP1;ratioP1;P1;durP2;ratioP2;P2;SDS_P1;SDS_P2;PMS_P1;PMS_P2;Temp;Humidity;BMP_temperature;BMP_pressure;BME280_temperature;BME280_humidity;BME280_pressure;Samples;Min_cycle;Max_cycle;Signal;HPM_P1;HPM_P2
2022/12/13 00:01:38;;;;;;;47.97;15.00;;;-1.50;99.90;;;;;;4996062;28;20034;-66
2022/12/13 00:04:05;;;;;;;42.13;13.93;;;-1.40;99.90;;;;;;4996410;28;20033;-66
2022/12/13 00:06:32;;;;;;;36.05;13.63;;;-1.20;99.90;;;;;;4997162;28;20036;-66
2022/12/13 00:08:58;;;;;;;44.38;13.73;;;-1.00;99.90;;;;;;4996154;28;20050;-66
2022/12/13 00:11:24;;;;;;;42.03;14.20;;;-0.80;99.90;;;;;;4998485;28;20069;-66
2022/12/13 00:13:49;;;;;;;37.70;12.52;;;-1.00;99.90;;;;;;4995973;28;20062;-66
2022/12/13 00:16:23;;;;;;;45.53;14.50;;;-1.40;99.90;;;;;;4997286;28;20019;-66
2022/12/13 00:18:50;;;;;;;39.13;13.98;;;-1.40;99.90;;;;;;4996361;28;20022;-66
2022/12/13 00:21:18;;;;;;;40.95;13.18;;;-1.60;99.90;;;;;;4997273;28;20053;-66
2022/12/13 00:23:44;;;;;;;42.63;12.55;;;-1.50;99.90;;;;;;4996983;28;20461;-66
2022/12/13 00:26:13;;;;;;;38.90;12.60;;;-1.30;99.90;;;;;;4995958;28;20066;-66
2022/12/13 00:28:39;;;;;;;43.70;15.38;;;-1.40;99.90;;;;;;4996751;28;20445;-66
2022/12/13 00:31:05;;;;;;;44.05;14.45;;;-1.40;99.90;;;;;;4995406;28;20113;-66
2022/12/13 00:33:31;;;;;;;34.40;12.73;;;-1.40;99.90;;;;;;4996725;28;20023;-66
2022/12/13 00:35:57;;;;;;;42.15;13.98;;;-1.30;99.90;;;;;;4995391;28;20089;-66
2022/12/13 00:38:23;;;;;;;39.55;12.75;;;-1.30;99.90;;;;;;4995473;28;20026;-66
2022/12/13 00:40:50;;;;;;;36.10;12.70;;;-1.20;99.90;;;;;;4996346;28;20088;-66
2022/12/13 00:43:16;;;;;;;42.88;15.02;;;-1.20;99.90;;;;;;4995999;28;20022;-66
2022/12/13 00:45:41;;;;;;;41.13;13.30;;;-1.20;99.90;;;;;;4995498;28;20053;-66
2022/12/13 00:48:07;;;;;;;46.42;12.82;;;-1.00;99.90;;;;;;4996684;28;20032;-66
2022/12/13 00:50:32;;;;;;;39.95;13.13;;;-1.30;99.90;;;;;;4996318;28;20026;-66
2022/12/13 00:52:59;;;;;;;45.67;14.65;;;-1.50;99.90;;;;;;4996297;28;20034;-66
2022/12/13 00:55:25;;;;;;;46.05;13.80;;;-1.60;99.90;;;;;;4995210;28;20026;-66
2022/12/13 00:57:51;;;;;;;48.13;14.40;;;-1.60;99.90;;;;;;4994979;28;20041;-66
2022/12/13 01:00:17;;;;;;;47.25;13.35;;;-1.80;99.90;;;;;;4994915;28;20038;-66
2022/12/13 01:02:43;;;;;;;47.97;15.68;;;-1.70;99.90;;;;;;4994934;28;20027;-66
2022/12/13 01:05:10;;;;;;;45.42;15.23;;;-1.60;99.90;;;;;;4995180;28;20085;-66
2022/12/13 01:07:37;;;;;;;51.97;14.25;;;-1.70;99.90;;;;;;4994849;28;20116;-66
2022/12/13 01:10:04;;;;;;;43.83;13.15;;;-1.80;99.90;;;;;;4994652;28;20036;-66
2022/12/13 01:12:30;;;;;;;43.40;14.43;;;-1.70;99.90;;;;;;4994633;28;20049;-66
2022/12/13 01:14:55;;;;;;;43.78;13.82;;;-1.60;99.90;;;;;;4996576;28;20470;-66
2022/12/13 01:17:21;;;;;;;41.53;13.23;;;-1.80;99.90;;;;;;4994737;28;20034;-66
2022/12/13 01:19:46;;;;;;;38.35;12.70;;;-1.90;99.90;;;;;;4994614;28;20030;-66
2022/12/13 01:22:12;;;;;;;40.30;12.65;;;-1.80;99.90;;;;;;4995823;28;20501;-66
2022/12/13 01:24:38;;;;;;;33.83;12.00;;;-1.90;99.90;;;;;;4994768;28;20031;-66
2022/12/13 01:27:03;;;;;;;42.13;13.00;;;-1.90;99.90;;;;;;4995646;28;20049;-66
2022/12/13 01:29:29;;;;;;;41.08;12.90;;;-1.60;99.90;;;;;;4995611;28;20026;-66
2022/12/13 01:31:54;;;;;;;43.17;13.05;;;-1.60;99.90;;;;;;4995610;28;20085;-66
2022/12/13 01:34:22;;;;;;;42.20;13.70;;;-1.60;99.90;;;;;;4995609;28;20025;-66
2022/12/13 01:36:48;;;;;;;33.50;13.02;;;-1.80;99.90;;;;;;4994271;28;20022;-66
2022/12/13 01:39:16;;;;;;;40.63;12.70;;;-2.10;99.90;;;;;;4995962;28;20034;-66
2022/12/13 01:41:43;;;;;;;36.10;12.90;;;-2.10;99.90;;;;;;4994236;28;20030;-66
2022/12/13 01:44:46;;;;;;;39.10;13.10;;;-2.20;99.90;;;;;;4994648;28;20121;-66
2022/12/13 01:47:15;;;;;;;38.70;13.20;;;-2.30;99.90;;;;;;4995569;28;20089;-66
2022/12/13 01:49:40;;;;;;;34.25;12.25;;;-2.20;99.90;;;;;;4994228;28;20133;-66
2022/12/13 01:52:11;;;;;;;43.22;14.18;;;-2.10;99.90;;;;;;4994204;28;20450;-66
2022/12/13 01:54:42;;;;;;;34.97;12.50;;;-2.10;99.90;;;;;;4993989;28;20109;-66
2022/12/13 01:57:11;;;;;;;42.45;13.55;;;-2.10;99.90;;;;;;4995578;28;20065;-66
2022/12/13 01:59:38;;;;;;;31.33;11.82;;;-2.00;99.90;;;;;;4995005;28;20433;-66
2022/12/13 02:02:05;;;;;;;44.88;13.55;;;-2.20;99.90;;;;;;4994192;28;20031;-66
2022/12/13 02:04:40;;;;;;;37.83;12.15;;;-2.20;99.90;;;;;;4994046;28;20109;-66
2022/12/13 02:07:06;;;;;;;37.00;12.65;;;-2.00;99.90;;;;;;4994741;28;20022;-66
2022/12/13 02:09:34;;;;;;;40.30;13.48;;;-2.10;99.90;;;;;;4996357;28;20023;-66
2022/12/13 02:12:01;;;;;;;38.20;12.75;;;-2.10;99.90;;;;;;4994436;28;20026;-66
2022/12/13 02:14:26;;;;;;;34.25;12.30;;;-2.40;99.90;;;;;;4995012;28;20022;-66
2022/12/13 02:17:13;;;;;;;50.10;13.07;;;-2.40;99.90;;;;;;4993535;28;20363;-66
2022/12/13 02:19:57;;;;;;;34.78;11.75;;;-2.40;99.90;;;;;;4994866;28;20110;-66
2022/12/13 02:22:55;;;;;;;43.00;11.75;;;-2.30;99.90;;;;;;4994591;28;20026;-66
2022/12/13 02:25:24;;;;;;;38.45;12.02;;;-2.10;99.90;;;;;;4994874;28;20026;-66
2022/12/13 02:28:24;;;;;;;44.10;13.20;;;-2.20;99.90;;;;;;4993882;28;20184;-66
2022/12/13 02:31:13;;;;;;;39.50;14.20;;;-2.30;99.90;;;;;;4993195;28;20034;-66
2022/12/13 02:33:53;;;;;;;37.45;11.90;;;-2.40;99.90;;;;;;4994494;28;20037;-66
2022/12/13 02:36:19;;;;;;;37.35;11.70;;;-2.30;99.90;;;;;;4994748;28;20026;-66
2022/12/13 02:38:56;;;;;;;36.05;12.50;;;-2.20;99.90;;;;;;4993419;28;20590;-66
2022/12/13 02:41:37;;;;;;;43.60;12.32;;;-2.30;99.90;;;;;;4993395;28;20045;-66
2022/12/13 02:44:25;;;;;;;44.92;13.27;;;-2.30;99.90;;;;;;4993067;28;20022;-66
2022/12/13 02:47:05;;;;;;;34.95;11.50;;;-2.20;99.90;;;;;;4994320;28;20030;-66
2022/12/13 02:49:35;;;;;;;33.50;11.25;;;-2.30;99.90;;;;;;4994077;28;20633;-66
2022/12/13 02:52:02;;;;;;;40.80;13.40;;;-2.40;99.90;;;;;;4992996;28;20027;-66
2022/12/13 02:54:28;;;;;;;35.42;11.77;;;-2.60;99.90;;;;;;4994449;28;20027;-66
2022/12/13 02:56:56;;;;;;;33.22;12.68;;;-2.50;99.90;;;;;;4993982;28;20030;-66
2022/12/13 02:59:26;;;;;;;37.58;12.65;;;-2.30;99.90;;;;;;4994221;28;20085;-66
2022/12/13 03:02:17;;;;;;;40.55;13.77;;;-2.40;99.90;;;;;;4993364;28;20042;-66
2022/12/13 03:07:47;;;;;;;36.72;11.98;;;-2.20;99.90;;;;;;4994205;28;20248;-66
2022/12/13 03:10:21;;;;;;;38.22;13.93;;;-2.30;99.90;;;;;;4993825;28;20018;-66
2022/12/13 03:15:51;;;;;;;36.70;12.65;;;-2.60;99.90;;;;;;4994497;28;20292;-66
2022/12/13 03:18:20;;;;;;;46.67;13.55;;;-2.50;99.90;;;;;;4992980;28;20018;-66
2022/12/13 03:20:57;;;;;;;40.63;13.10;;;-2.60;99.90;;;;;;4994168;28;20462;-66
2022/12/13 03:23:24;;;;;;;42.05;13.27;;;-2.70;99.90;;;;;;4994598;28;20097;-66
2022/12/13 03:25:54;;;;;;;41.05;12.55;;;-2.80;99.90;;;;;;4993907;28;20026;-67
2022/12/13 03:28:21;;;;;;;42.95;12.80;;;-2.80;99.90;;;;;;4994097;28;20109;-67
2022/12/13 03:30:46;;;;;;;35.33;12.20;;;-2.90;99.90;;;;;;4993807;28;20133;-67
2022/12/13 03:33:12;;;;;;;42.13;12.55;;;-3.00;99.90;;;;;;4993079;28;20458;-67
2022/12/13 03:35:40;;;;;;;40.65;11.73;;;-3.10;99.90;;;;;;4993896;28;20073;-68
2022/12/13 03:38:06;;;;;;;36.65;12.23;;;-2.90;99.90;;;;;;4993870;28;20031;-67
2022/12/13 03:40:32;;;;;;;36.72;12.20;;;-2.80;99.90;;;;;;4993684;28;20053;-67
2022/12/13 03:42:58;;;;;;;43.55;12.35;;;-2.80;99.90;;;;;;4992879;28;20049;-67
2022/12/13 03:45:24;;;;;;;36.08;11.65;;;-2.70;99.90;;;;;;4993890;28;20398;-67
2022/12/13 03:47:49;;;;;;;43.53;12.57;;;-2.80;99.90;;;;;;4993055;28;20026;-67
2022/12/13 03:50:15;;;;;;;33.88;11.80;;;-2.80;99.90;;;;;;4994476;28;20101;-66
2022/12/13 03:52:41;;;;;;;35.88;11.93;;;-3.00;99.90;;;;;;4993206;28;20023;-67
2022/12/13 03:55:07;;;;;;;35.22;11.68;;;-3.10;99.90;;;;;;4994455;28;20023;-67
2022/12/13 03:57:32;;;;;;;34.45;10.80;;;-3.00;99.90;;;;;;4993625;28;20033;-67
2022/12/13 03:59:58;;;;;;;31.80;10.45;;;-2.80;99.90;;;;;;4992978;28;20423;-66
2022/12/13 04:02:23;;;;;;;28.42;9.77;;;-3.00;99.90;;;;;;4994367;28;20046;-66
2022/12/13 04:04:49;;;;;;;40.83;11.45;;;-3.00;99.90;;;;;;4993134;28;20044;-66
2022/12/13 04:07:14;;;;;;;37.25;11.10;;;-3.10;99.90;;;;;;4993431;28;20413;-67
2022/12/13 04:09:40;;;;;;;39.50;11.43;;;-2.90;99.90;;;;;;4994025;28;20030;-66
2022/12/13 04:14:50;;;;;;;40.75;12.88;;;-2.90;99.90;;;;;;4994914;28;20033;-66
2022/12/13 04:17:15;;;;;;;43.63;12.20;;;-3.10;99.90;;;;;;4996589;28;20019;-66
2022/12/13 04:19:41;;;;;;;43.92;13.88;;;-3.20;99.90;;;;;;4995598;28;20389;-66
2022/12/13 04:22:06;;;;;;;35.67;11.38;;;-3.10;99.90;;;;;;4996505;28;20022;-66
2022/12/13 04:24:32;;;;;;;40.10;12.02;;;-3.20;99.90;;;;;;4996890;28;20023;-66
2022/12/13 04:26:58;;;;;;;34.47;10.88;;;-3.30;99.90;;;;;;4995861;28;20037;-66
2022/12/13 04:29:23;;;;;;;40.20;12.00;;;-3.10;99.90;;;;;;4995454;28;20478;-66
2022/12/13 04:31:49;;;;;;;39.03;12.52;;;-3.30;99.90;;;;;;4996859;28;20027;-66
2022/12/13 04:34:14;;;;;;;39.80;12.15;;;-3.30;99.90;;;;;;4995371;28;20037;-66
2022/12/13 04:36:40;;;;;;;38.05;13.35;;;-3.30;99.90;;;;;;4995840;28;20050;-66
2022/12/13 04:39:06;;;;;;;39.00;12.63;;;-3.40;99.90;;;;;;4995627;28;20018;-66
2022/12/13 04:41:38;;;;;;;38.92;11.82;;;-3.40;99.90;;;;;;4996442;28;20077;-66
2022/12/13 04:44:06;;;;;;;41.10;10.82;;;-3.50;99.90;;;;;;4995244;28;20030;-66
2022/12/13 04:46:32;;;;;;;33.15;10.60;;;-3.60;99.90;;;;;;4996675;28;20053;-66
2022/12/13 04:48:57;;;;;;;38.25;11.50;;;-3.50;99.90;;;;;;4995885;28;20026;-66
2022/12/13 04:51:23;;;;;;;34.15;12.73;;;-3.50;99.90;;;;;;4996577;28;20409;-66
2022/12/13 04:53:49;;;;;;;39.38;11.55;;;-3.70;99.90;;;;;;4996320;28;20022;-66
2022/12/13 04:56:15;;;;;;;39.55;11.75;;;-3.70;99.90;;;;;;4995326;28;20019;-66
2022/12/13 04:58:40;;;;;;;36.70;10.73;;;-3.80;99.90;;;;;;4995264;28;20026;-67
2022/12/13 05:01:10;;;;;;;43.72;12.38;;;-3.90;99.90;;;;;;4996265;28;20121;-67
2022/12/13 05:03:36;;;;;;;35.95;10.32;;;-3.90;99.90;;;;;;4996072;28;20026;-67
2022/12/13 05:06:12;;;;;;;35.38;10.85;;;-3.70;99.90;;;;;;4995126;28;20061;-67
2022/12/13 05:08:37;;;;;;;35.97;11.48;;;-3.50;99.90;;;;;;4994992;28;20453;-67
2022/12/13 05:11:04;;;;;;;36.67;10.95;;;-3.50;99.90;;;;;;4996469;28;20101;-67
2022/12/13 05:13:30;;;;;;;38.55;11.35;;;-3.50;99.90;;;;;;4994746;28;20474;-67
2022/12/13 05:16:01;;;;;;;35.78;11.98;;;-3.50;99.90;;;;;;4995061;28;20077;-67
2022/12/13 05:18:27;;;;;;;33.92;10.85;;;-3.40;99.90;;;;;;4995132;28;20077;-66
2022/12/13 05:20:53;;;;;;;38.42;11.18;;;-3.40;99.90;;;;;;4995188;28;20030;-67
2022/12/13 05:23:20;;;;;;;31.00;9.85;;;-3.30;99.90;;;;;;4994590;28;20027;-67
2022/12/13 05:25:46;;;;;;;35.42;11.02;;;-3.20;99.90;;;;;;4994735;28;20033;-67
2022/12/13 05:28:11;;;;;;;38.50;10.52;;;-3.00;99.90;;;;;;4994956;28;20028;-67
2022/12/13 05:30:38;;;;;;;34.25;10.75;;;-2.90;99.90;;;;;;4995595;28;20034;-67
2022/12/13 05:33:03;;;;;;;30.50;9.57;;;-2.80;99.90;;;;;;4994694;28;20022;-67
2022/12/13 05:35:29;;;;;;;35.80;11.38;;;-2.90;99.90;;;;;;4994399;28;20086;-67
2022/12/13 05:37:55;;;;;;;37.97;11.35;;;-3.00;99.90;;;;;;4994169;28;20018;-67
2022/12/13 05:40:21;;;;;;;35.92;11.35;;;-3.20;99.90;;;;;;4994200;28;20029;-67
2022/12/13 05:42:47;;;;;;;33.40;10.95;;;-3.30;99.90;;;;;;4995722;28;20108;-67
2022/12/13 05:45:14;;;;;;;35.70;10.85;;;-3.30;99.90;;;;;;4995396;28;20066;-67
2022/12/13 05:47:40;;;;;;;31.27;10.55;;;-3.50;99.90;;;;;;4994376;28;20041;-66
2022/12/13 05:50:06;;;;;;;33.83;11.18;;;-3.40;99.90;;;;;;4995467;28;20026;-67
2022/12/13 05:52:31;;;;;;;35.15;10.07;;;-3.40;99.90;;;;;;4995220;28;20409;-66
2022/12/13 05:54:57;;;;;;;29.40;10.63;;;-3.40;99.90;;;;;;4994799;28;20022;-66
2022/12/13 05:57:23;;;;;;;38.65;11.30;;;-3.50;99.90;;;;;;4995488;28;20057;-66
2022/12/13 05:59:48;;;;;;;35.97;10.75;;;-3.50;99.90;;;;;;4994572;28;20027;-66
2022/12/13 06:02:14;;;;;;;32.03;12.00;;;-3.50;99.90;;;;;;4996486;28;20085;-66
2022/12/13 06:04:40;;;;;;;29.48;10.93;;;-3.50;99.90;;;;;;4996838;28;20030;-66
2022/12/13 06:07:05;;;;;;;31.77;9.85;;;-3.60;99.90;;;;;;4995330;28;20032;-66
2022/12/13 06:09:31;;;;;;;31.30;10.57;;;-3.60;99.90;;;;;;4993969;28;20057;-66
2022/12/13 06:11:57;;;;;;;37.63;11.73;;;-3.60;99.90;;;;;;4995283;28;20033;-66
2022/12/13 06:14:23;;;;;;;34.13;10.07;;;-3.70;99.90;;;;;;4994987;28;20018;-66
2022/12/13 06:16:49;;;;;;;36.83;11.23;;;-3.90;99.90;;;;;;4995709;28;20027;-65
2022/12/13 06:19:14;;;;;;;38.47;10.70;;;-4.00;99.90;;;;;;4993487;28;20030;-65
2022/12/13 06:21:40;;;;;;;37.40;12.07;;;-4.00;99.90;;;;;;4993327;28;20049;-65
2022/12/13 06:24:07;;;;;;;42.78;11.73;;;-3.90;99.90;;;;;;4994255;28;20030;-65
2022/12/13 06:26:33;;;;;;;30.80;11.88;;;-3.80;99.90;;;;;;4993319;28;20030;-65
2022/12/13 06:28:58;;;;;;;29.83;9.88;;;-3.90;99.90;;;;;;4993310;28;20033;-65
2022/12/13 06:31:24;;;;;;;45.90;12.05;;;-3.80;99.90;;;;;;4993087;28;20026;-65
2022/12/13 06:33:50;;;;;;;37.63;12.20;;;-3.90;99.90;;;;;;4993274;28;20022;-65
2022/12/13 06:36:15;;;;;;;35.58;11.05;;;-3.80;99.90;;;;;;4994466;28;20019;-65
2022/12/13 06:38:41;;;;;;;37.70;11.55;;;-3.80;99.90;;;;;;4993309;28;20022;-65
2022/12/13 06:41:12;;;;;;;35.17;11.27;;;-3.80;99.90;;;;;;4994267;28;20026;-65
2022/12/13 06:43:42;;;;;;;36.72;12.05;;;-4.00;99.90;;;;;;4994555;28;20053;-65
2022/12/13 06:46:07;;;;;;;38.90;10.75;;;-3.90;99.90;;;;;;4994992;28;20022;-65
2022/12/13 06:48:33;;;;;;;34.45;11.35;;;-4.00;99.90;;;;;;4992917;28;20126;-65
2022/12/13 06:51:00;;;;;;;29.45;9.20;;;-4.00;99.90;;;;;;4992935;28;20025;-65
2022/12/13 06:53:26;;;;;;;40.70;12.23;;;-3.80;99.90;;;;;;4993307;28;20033;-66
2022/12/13 06:55:51;;;;;;;30.92;10.93;;;-3.90;99.90;;;;;;4993003;28;20116;-65
2022/12/13 06:58:17;;;;;;;35.28;9.45;;;-3.90;99.90;;;;;;4993764;28;20121;-65
2022/12/13 07:00:42;;;;;;;37.08;11.20;;;-4.00;99.90;;;;;;4993925;28;20045;-65
2022/12/13 07:03:10;;;;;;;38.33;11.00;;;-4.00;99.90;;;;;;4993295;28;20026;-65
2022/12/13 07:05:37;;;;;;;32.25;11.27;;;-3.80;99.90;;;;;;4994277;28;20152;-65
2022/12/13 07:08:02;;;;;;;32.95;10.23;;;-3.90;99.90;;;;;;4993745;28;20034;-65
2022/12/13 07:10:28;;;;;;;41.22;10.70;;;-4.00;99.90;;;;;;4993232;28;20030;-65
2022/12/13 07:12:54;;;;;;;38.03;11.55;;;-3.80;99.90;;;;;;4992939;28;20030;-65
2022/12/13 07:15:19;;;;;;;36.53;11.55;;;-3.90;99.90;;;;;;4992731;28;20113;-65
2022/12/13 07:17:49;;;;;;;32.38;10.80;;;-3.90;99.90;;;;;;4992734;28;20032;-65
2022/12/13 07:20:15;;;;;;;38.22;12.15;;;-4.00;99.90;;;;;;4993862;28;20026;-65
2022/12/13 07:22:41;;;;;;;34.58;11.95;;;-4.10;99.90;;;;;;4993119;28;20030;-65
2022/12/13 07:25:07;;;;;;;37.08;10.88;;;-4.10;99.90;;;;;;4992550;28;20026;-65
2022/12/13 07:27:33;;;;;;;32.08;10.13;;;-4.20;99.90;;;;;;4994281;28;20121;-65
2022/12/13 07:29:59;;;;;;;36.55;11.43;;;-4.40;99.90;;;;;;4992447;28;20023;-65
2022/12/13 07:32:26;;;;;;;35.63;11.32;;;-4.60;99.90;;;;;;4992894;28;20022;-65
2022/12/13 07:34:52;;;;;;;38.80;11.43;;;-4.50;99.90;;;;;;4993815;28;20022;-65
2022/12/13 07:37:18;;;;;;;35.30;11.48;;;-4.60;99.90;;;;;;4993755;28;20081;-65
2022/12/13 07:39:44;;;;;;;30.65;10.30;;;-4.60;99.90;;;;;;4992408;28;20027;-65
2022/12/13 07:42:09;;;;;;;45.45;14.60;;;-4.40;99.90;;;;;;4992440;28;20026;-65
2022/12/13 07:44:34;;;;;;;51.17;13.50;;;-4.20;99.90;;;;;;4992410;28;20105;-65
2022/12/13 07:47:00;;;;;;;33.95;11.45;;;-3.90;99.90;;;;;;4992801;28;20049;-65
2022/12/13 07:49:25;;;;;;;38.50;12.38;;;-3.70;99.90;;;;;;4993589;28;20022;-65
2022/12/13 07:51:51;;;;;;;39.30;13.23;;;-3.70;99.90;;;;;;4996256;28;20030;-65
2022/12/13 07:54:17;;;;;;;38.40;11.48;;;-3.50;99.90;;;;;;4997435;28;20019;-65
2022/12/13 07:56:42;;;;;;;44.42;12.35;;;-3.60;99.90;;;;;;4996127;28;20018;-65
2022/12/13 07:59:09;;;;;;;41.03;12.85;;;-3.60;99.90;;;;;;4997421;28;20054;-65
2022/12/13 08:01:35;;;;;;;36.58;13.32;;;-3.70;99.90;;;;;;4996794;28;20042;-65
2022/12/13 08:04:01;;;;;;;43.65;13.43;;;-3.80;99.90;;;;;;4997232;28;20033;-65
2022/12/13 08:06:27;;;;;;;43.33;13.25;;;-3.80;99.90;;;;;;4997104;28;20061;-65
2022/12/13 08:08:56;;;;;;;40.47;13.25;;;-3.70;99.90;;;;;;4997063;28;20085;-65
2022/12/13 08:11:22;;;;;;;38.13;11.82;;;-3.70;99.90;;;;;;4995869;28;20030;-65
2022/12/13 08:13:47;;;;;;;46.83;13.88;;;-3.50;99.90;;;;;;4997002;28;20023;-65
2022/12/13 08:16:17;;;;;;;41.85;13.10;;;-3.60;99.90;;;;;;4995808;28;20054;-65
2022/12/13 08:18:43;;;;;;;43.13;12.50;;;-3.50;99.90;;;;;;4996766;28;20363;-65
2022/12/13 08:21:09;;;;;;;47.72;13.50;;;-3.40;99.90;;;;;;4995617;28;20032;-65
2022/12/13 08:23:36;;;;;;;47.95;15.00;;;-3.50;99.90;;;;;;4995622;28;20026;-65
2022/12/13 08:26:03;;;;;;;55.03;15.60;;;-3.60;99.90;;;;;;4995518;28;20033;-65
2022/12/13 08:28:30;;;;;;;49.15;14.40;;;-3.70;99.90;;;;;;4996739;28;20027;-65
2022/12/13 08:31:05;;;;;;;45.75;13.85;;;-3.60;99.90;;;;;;4996668;28;20073;-65
2022/12/13 08:33:32;;;;;;;47.28;14.48;;;-3.70;99.90;;;;;;4996801;28;20023;-65
2022/12/13 08:35:57;;;;;;;38.30;12.63;;;-3.60;99.90;;;;;;4995747;28;20023;-65
2022/12/13 08:38:23;;;;;;;39.85;12.93;;;-3.40;99.90;;;;;;4995663;28;20030;-65
2022/12/13 08:40:48;;;;;;;39.20;11.95;;;-3.40;99.90;;;;;;4997256;28;20027;-65
2022/12/13 08:43:14;;;;;;;45.25;12.55;;;-3.30;99.90;;;;;;4995258;28;20029;-65
2022/12/13 08:45:39;;;;;;;41.70;13.98;;;-3.20;99.90;;;;;;4996406;28;20026;-65
2022/12/13 08:48:05;;;;;;;40.90;12.35;;;-3.30;99.90;;;;;;4996403;28;20040;-66
2022/12/13 08:50:31;;;;;;;53.33;13.90;;;-3.40;99.90;;;;;;4996179;28;20034;-66
2022/12/13 08:52:57;;;;;;;40.78;12.82;;;-3.40;99.90;;;;;;4995134;28;20486;-66
2022/12/13 08:55:23;;;;;;;41.00;12.20;;;-3.40;99.90;;;;;;4996247;28;20028;-65
2022/12/13 08:57:48;;;;;;;45.13;12.27;;;-3.50;99.90;;;;;;4995013;28;20113;-65
2022/12/13 09:00:18;;;;;;;43.05;13.60;;;-3.40;99.90;;;;;;4994715;28;20057;-65
2022/12/13 09:02:43;;;;;;;44.85;13.80;;;-3.30;99.90;;;;;;4995281;28;20058;-65
2022/12/13 09:05:09;;;;;;;36.40;12.75;;;-3.30;99.90;;;;;;4996156;28;20029;-65
2022/12/13 09:07:38;;;;;;;48.83;14.05;;;-3.30;99.90;;;;;;4996016;28;20105;-65
2022/12/13 09:10:04;;;;;;;44.72;13.25;;;-3.30;99.90;;;;;;4994753;28;20101;-66
2022/12/13 09:12:29;;;;;;;45.38;13.43;;;-3.30;99.90;;;;;;4995598;28;20031;-66
2022/12/13 09:14:55;;;;;;;54.38;13.63;;;-3.20;99.90;;;;;;4994806;28;20479;-65
2022/12/13 09:17:20;;;;;;;47.63;15.27;;;-3.10;99.90;;;;;;4995843;28;20030;-65
2022/12/13 09:19:46;;;;;;;36.80;11.65;;;-3.00;99.90;;;;;;4994579;28;20050;-65
2022/12/13 09:22:11;;;;;;;49.00;13.13;;;-2.80;99.90;;;;;;4994915;28;20081;-65
2022/12/13 09:24:37;;;;;;;49.05;14.45;;;-2.60;99.90;;;;;;4994680;28;20022;-65
2022/12/13 09:27:06;;;;;;;48.45;13.68;;;-2.70;99.90;;;;;;4996410;28;20029;-66
2022/12/13 09:29:32;;;;;;;49.88;14.75;;;-2.60;99.90;;;;;;4995637;28;20034;-66
2022/12/13 09:31:59;;;;;;;45.15;14.15;;;-2.60;99.90;;;;;;4994623;28;20076;-65
2022/12/13 09:34:24;;;;;;;43.28;14.30;;;-2.40;99.90;;;;;;4994598;28;20022;-66
2022/12/13 09:36:50;;;;;;;46.60;13.68;;;-2.40;99.90;;;;;;4995162;28;20033;-65
2022/12/13 09:39:15;;;;;;;45.95;13.85;;;-2.40;99.90;;;;;;4995076;28;20022;-66
2022/12/13 09:41:53;;;;;;;47.83;15.00;;;-2.30;99.90;;;;;;4994271;28;20026;-65
2022/12/13 09:44:28;;;;;;;36.80;11.15;;;-2.10;99.90;;;;;;4994465;28;20474;-66
2022/12/13 09:46:56;;;;;;;39.03;12.27;;;-2.20;99.90;;;;;;4995386;28;20026;-66
2022/12/13 09:49:38;;;;;;;33.40;11.77;;;-2.00;99.90;;;;;;4994516;28;20117;-66
2022/12/13 09:52:06;;;;;;;36.83;12.43;;;-1.70;99.90;;;;;;4995253;28;20038;-65
2022/12/13 09:54:32;;;;;;;35.90;11.77;;;-1.90;99.90;;;;;;4994874;28;20109;-65
2022/12/13 09:56:58;;;;;;;37.38;11.77;;;-1.90;99.90;;;;;;4993977;28;20045;-65
2022/12/13 09:59:31;;;;;;;41.30;12.45;;;-2.00;99.90;;;;;;4993909;28;20022;-65
2022/12/13 10:02:05;;;;;;;34.67;12.05;;;-1.50;99.90;;;;;;4993770;28;20035;-65
2022/12/13 10:04:31;;;;;;;35.72;10.60;;;-1.30;99.90;;;;;;4994600;28;20035;-65
2022/12/13 10:06:58;;;;;;;29.55;11.02;;;-0.90;99.90;;;;;;4994580;28;20025;-65
2022/12/13 10:09:24;;;;;;;36.00;12.38;;;-0.70;99.90;;;;;;4995106;28;20025;-65
2022/12/13 10:11:52;;;;;;;40.75;11.38;;;-0.70;99.90;;;;;;4994589;28;20023;-65
2022/12/13 10:14:35;;;;;;;41.88;12.48;;;-0.70;99.90;;;;;;4993492;28;20031;-66
2022/12/13 10:17:04;;;;;;;34.53;10.75;;;-0.40;99.90;;;;;;4994673;28;20029;-66
2022/12/13 10:19:33;;;;;;;38.15;11.25;;;-0.10;99.90;;;;;;4993785;28;20027;-65
2022/12/13 10:22:01;;;;;;;32.35;11.77;;;0.00;99.90;;;;;;4993516;28;20031;-65
2022/12/13 10:24:31;;;;;;;29.23;11.18;;;0.10;99.90;;;;;;4993797;28;20034;-65
2022/12/13 10:27:14;;;;;;;31.70;11.75;;;0.20;99.90;;;;;;4995374;28;20548;-65
2022/12/13 10:30:11;;;;;;;34.97;10.65;;;0.30;99.90;;;;;;4993340;28;20482;-65
2022/12/13 10:32:42;;;;;;;28.80;11.88;;;0.20;99.90;;;;;;4993371;28;20085;-65
2022/12/13 10:35:20;;;;;;;31.20;11.32;;;0.20;99.90;;;;;;4993276;28;20018;-65
2022/12/13 10:37:46;;;;;;;37.30;11.05;;;0.30;99.90;;;;;;4993210;28;20026;-65
2022/12/13 10:40:31;;;;;;;32.15;10.85;;;0.20;99.90;;;;;;4994366;28;20114;-65
2022/12/13 10:43:15;;;;;;;33.55;12.60;;;0.20;99.90;;;;;;4993718;28;20037;-65
2022/12/13 10:45:43;;;;;;;36.58;11.93;;;0.20;99.90;;;;;;4993134;28;20118;-65
2022/12/13 10:48:19;;;;;;;34.97;10.88;;;0.10;99.90;;;;;;4992963;28;20054;-65
2022/12/13 10:50:57;;;;;;;33.55;11.60;;;0.30;99.90;;;;;;4992919;28;20060;-65
2022/12/13 10:53:27;;;;;;;32.60;11.02;;;0.40;99.90;;;;;;4993048;28;20059;-65
2022/12/13 10:55:55;;;;;;;33.17;11.98;;;0.50;99.90;;;;;;4992938;28;20032;-65
2022/12/13 10:58:20;;;;;;;34.20;11.45;;;0.50;99.90;;;;;;4993468;28;20029;-65
2022/12/13 11:00:48;;;;;;;35.88;11.63;;;0.50;99.90;;;;;;4993950;28;20038;-65
2022/12/13 11:03:33;;;;;;;44.33;13.50;;;0.60;99.90;;;;;;4994320;28;20030;-65
2022/12/13 11:06:14;;;;;;;36.83;11.40;;;0.60;99.90;;;;;;4992878;28;20088;-65
2022/12/13 11:08:40;;;;;;;36.05;11.82;;;0.70;99.90;;;;;;4992722;28;20057;-65
2022/12/13 11:11:07;;;;;;;38.50;11.05;;;0.80;99.90;;;;;;4993983;28;20080;-65
2022/12/13 11:13:43;;;;;;;32.00;10.63;;;1.10;99.90;;;;;;4992755;28;20109;-65
2022/12/13 11:16:30;;;;;;;37.35;12.45;;;1.00;99.90;;;;;;4994302;28;20134;-65
2022/12/13 11:18:59;;;;;;;33.65;10.90;;;0.90;99.90;;;;;;4993052;28;20019;-65
2022/12/13 11:21:31;;;;;;;33.83;12.15;;;1.10;99.90;;;;;;4993833;28;20023;-65
2022/12/13 11:24:00;;;;;;;32.45;11.27;;;1.20;99.90;;;;;;4992648;28;20034;-65
2022/12/13 11:26:27;;;;;;;30.52;11.65;;;1.20;99.90;;;;;;4996813;28;20121;-65
2022/12/13 11:29:08;;;;;;;31.67;11.30;;;1.00;99.90;;;;;;4997652;28;20030;-65
2022/12/13 11:32:08;;;;;;;38.78;12.88;;;0.80;99.90;;;;;;4998178;28;20035;-65
2022/12/13 11:34:44;;;;;;;32.42;11.40;;;0.70;99.90;;;;;;4997813;28;20022;-65
2022/12/13 11:37:14;;;;;;;35.83;12.23;;;0.90;99.90;;;;;;4996596;28;20026;-65
2022/12/13 11:40:09;;;;;;;34.33;12.43;;;0.80;99.90;;;;;;4997702;28;20167;-65
2022/12/13 11:42:43;;;;;;;34.75;11.77;;;1.00;99.90;;;;;;4997698;28;20402;-65
2022/12/13 11:45:24;;;;;;;40.92;13.45;;;1.10;99.90;;;;;;4996409;28;20023;-65
2022/12/13 11:48:02;;;;;;;37.72;12.75;;;1.20;99.90;;;;;;4996295;28;20027;-65
2022/12/13 11:50:49;;;;;;;39.17;13.50;;;1.20;99.90;;;;;;4997758;28;20058;-65
2022/12/13 11:53:17;;;;;;;35.15;12.95;;;1.30;99.90;;;;;;4996179;28;20063;-65
2022/12/13 11:55:49;;;;;;;40.10;12.15;;;1.40;99.90;;;;;;4996717;28;20018;-66
2022/12/13 11:58:36;;;;;;;34.90;13.13;;;1.40;99.90;;;;;;4997340;28;20018;-65
2022/12/13 12:01:15;;;;;;;37.05;12.13;;;1.60;99.90;;;;;;4996143;28;20042;-64
2022/12/13 12:03:51;;;;;;;43.95;13.25;;;1.80;99.90;;;;;;4996231;28;20022;-64
2022/12/13 12:06:28;;;;;;;38.60;12.95;;;1.90;99.90;;;;;;4997546;28;20089;-64
2022/12/13 12:09:02;;;;;;;38.35;13.07;;;1.90;99.90;;;;;;4996510;28;20058;-64
2022/12/13 12:11:46;;;;;;;42.67;13.77;;;1.80;99.90;;;;;;4997132;28;20105;-64
2022/12/13 12:14:32;;;;;;;41.63;13.18;;;2.10;99.90;;;;;;4996435;28;20026;-64
2022/12/13 12:16:58;;;;;;;43.33;13.88;;;1.90;99.90;;;;;;5020268;23;20035;-66
2022/12/13 12:19:42;;;;;;;34.22;11.65;;;2.00;99.90;;;;;;4995772;28;20485;-66
2022/12/13 12:22:08;;;;;;;34.25;12.77;;;2.20;99.90;;;;;;4996625;28;20034;-66
2022/12/13 12:25:21;;;;;;;32.95;12.30;;;2.20;99.90;;;;;;4995997;28;20393;-66
2022/12/13 12:27:57;;;;;;;42.85;12.90;;;2.40;99.90;;;;;;4978289;28;20043;-66
2022/12/13 12:31:01;;;;;;;40.97;12.80;;;2.30;99.90;;;;;;4996473;28;20034;-66
2022/12/13 12:33:40;;;;;;;37.95;13.88;;;2.40;99.90;;;;;;4939854;29;20035;-66
2022/12/13 12:36:11;;;;;;;33.25;11.30;;;2.40;99.90;;;;;;4939808;29;20035;-66
2022/12/13 12:39:00;;;;;;;38.40;12.18;;;2.50;99.90;;;;;;4939874;29;20034;-66
2022/12/13 12:41:41;;;;;;;37.25;13.95;;;2.20;99.90;;;;;;4940106;29;20032;-66
2022/12/13 12:44:40;;;;;;;38.90;13.15;;;2.20;99.90;;;;;;4956199;29;20047;-66
2022/12/13 12:47:32;;;;;;;38.47;12.68;;;2.30;99.90;;;;;;4939580;29;20035;-66
2022/12/13 12:50:26;;;;;;;36.13;13.35;;;2.50;99.90;;;;;;4956213;29;20087;-66